createdAt,value
2023-12-15T00:00:52.446Z,52.24
2023-12-15T00:01:52.429Z,52.51
2023-12-15T00:02:52.421Z,53.94
2023-12-15T00:03:52.487Z,54.59
2023-12-15T00:04:52.474Z,52.62
2023-12-15T00:05:52.449Z,54.02
2023-12-15T00:06:52.468Z,52.21
2023-12-15T00:07:52.482Z,53.78
2023-12-15T00:08:52.427Z,53.16
2023-12-15T00:09:52.455Z,54.49
2023-12-15T00:10:52.475Z,52.37
2023-12-15T00:11:52.420Z,54.45
2023-12-15T00:12:52.448Z,52.51
2023-12-15T00:13:52.472Z,49.69
2023-12-15T00:14:52.437Z,53.17
2023-12-15T00:15:52.515Z,54.45
2023-12-15T00:16:52.551Z,51.75
2023-12-15T00:17:52.773Z,53.30
2023-12-15T00:18:52.647Z,56.27
2023-12-15T00:19:52.647Z,52.84
2023-12-15T00:20:52.640Z,51.67
2023-12-15T00:21:52.633Z,52.93
2023-12-15T00:22:52.671Z,55.72
2023-12-15T00:23:52.660Z,53.20
2023-12-15T00:24:52.687Z,54.41
2023-12-15T00:25:52.669Z,54.32
2023-12-15T00:26:52.673Z,52.38
2023-12-15T00:27:52.646Z,53.98
2023-12-15T00:28:52.730Z,53.72
2023-12-15T00:29:52.677Z,55.11
2023-12-15T00:30:52.821Z,54.33
2023-12-15T00:31:52.827Z,55.35
2023-12-15T00:32:52.961Z,55.26
2023-12-15T00:33:52.954Z,54.32
2023-12-15T00:34:52.896Z,54.90
2023-12-15T00:35:52.872Z,53.97
2023-12-15T00:36:52.900Z,54.12
2023-12-15T00:37:52.882Z,54.71
2023-12-15T00:38:52.888Z,51.76
2023-12-15T00:39:52.898Z,55.19
2023-12-15T00:40:53.057Z,55.16
2023-12-15T00:41:52.899Z,54.59
2023-12-15T00:42:52.918Z,55.46
2023-12-15T00:43:52.926Z,54.94
2023-12-15T00:44:52.934Z,55.37
2023-12-15T00:45:52.916Z,53.56
2023-12-15T00:46:52.966Z,57.11
2023-12-15T00:47:52.967Z,54.73
2023-12-15T00:48:53.022Z,54.06
2023-12-15T00:49:52.950Z,55.80
2023-12-15T00:50:52.957Z,52.68
2023-12-15T00:51:52.952Z,53.69
2023-12-15T00:52:52.975Z,52.29
2023-12-15T00:53:52.952Z,54.93
2023-12-15T00:54:52.985Z,54.36
2023-12-15T00:55:53.029Z,53.66
2023-12-15T00:56:52.982Z,53.37
2023-12-15T00:57:52.984Z,54.21
2023-12-15T00:58:52.972Z,53.41
2023-12-15T00:59:52.994Z,54.67
2023-12-15T01:00:53.023Z,54.06
2023-12-15T01:01:53.033Z,54.99
2023-12-15T01:02:53.028Z,51.01
2023-12-15T01:03:53.031Z,54.65
2023-12-15T01:04:53.149Z,54.55
2023-12-15T01:05:53.089Z,53.81
2023-12-15T01:06:52.991Z,51.98
2023-12-15T01:07:53.049Z,54.42
2023-12-15T01:08:53.018Z,52.57
2023-12-15T01:09:52.994Z,53.88
2023-12-15T01:10:53.134Z,53.61
2023-12-15T01:11:53.086Z,52.47
2023-12-15T01:12:53.155Z,55.36
2023-12-15T01:13:53.216Z,51.27
2023-12-15T01:14:53.226Z,54.20
2023-12-15T01:15:53.266Z,54.63
2023-12-15T01:16:53.408Z,55.79
2023-12-15T01:17:55.786Z,52.68
2023-12-15T01:18:53.447Z,52.72
2023-12-15T01:19:53.349Z,53.08
2023-12-15T01:20:53.346Z,53.42
2023-12-15T01:21:53.362Z,53.15
2023-12-15T01:22:53.406Z,53.57
2023-12-15T01:23:53.339Z,54.37
2023-12-15T01:24:53.363Z,51.79
2023-12-15T01:25:53.395Z,53.63
2023-12-15T01:26:53.377Z,54.99
2023-12-15T01:27:53.347Z,51.35
2023-12-15T01:28:53.378Z,51.58
2023-12-15T01:29:53.370Z,53.66
2023-12-15T01:30:53.401Z,53.84
2023-12-15T01:31:53.394Z,55.16
2023-12-15T01:32:53.380Z,55.12
2023-12-15T01:33:53.403Z,53.26
2023-12-15T01:34:53.385Z,55.26
2023-12-15T01:35:53.357Z,54.45
2023-12-15T01:36:53.358Z,51.03
2023-12-15T01:37:53.421Z,51.94
2023-12-15T01:38:53.366Z,53.49
2023-12-15T01:39:53.384Z,51.54
2023-12-15T01:40:53.423Z,54.91
2023-12-15T01:41:53.388Z,50.43
2023-12-15T01:42:53.364Z,53.25
2023-12-15T01:43:53.435Z,51.78
2023-12-15T01:44:53.364Z,53.06
2023-12-15T01:46:01.582Z,52.28
2023-12-15T01:46:54.405Z,52.44
2023-12-15T01:47:53.556Z,51.49
2023-12-15T01:48:53.440Z,53.42
2023-12-15T01:49:53.438Z,53.49
2023-12-15T01:50:53.397Z,54.52
2023-12-15T01:51:53.392Z,51.82
2023-12-15T01:52:53.421Z,53.49
2023-12-15T01:53:53.404Z,51.13
2023-12-15T01:54:53.413Z,53.61
2023-12-15T01:55:53.472Z,55.26
2023-12-15T01:56:53.407Z,51.70
2023-12-15T01:57:53.404Z,52.35
2023-12-15T01:58:53.412Z,54.93
2023-12-15T01:59:53.405Z,53.59
2023-12-15T02:00:53.408Z,52.51
2023-12-15T02:01:53.445Z,52.77
2023-12-15T02:02:53.439Z,53.42
2023-12-15T02:03:53.432Z,54.02
2023-12-15T02:04:53.453Z,55.89
2023-12-15T02:05:53.500Z,55.02
2023-12-15T02:06:53.462Z,54.95
2023-12-15T02:07:53.475Z,56.34
2023-12-15T02:08:53.398Z,53.93
2023-12-15T02:09:53.421Z,53.75
2023-12-15T02:10:53.452Z,52.68
2023-12-15T02:11:53.389Z,52.05
2023-12-15T02:12:53.433Z,53.14
2023-12-15T02:13:53.504Z,54.05
2023-12-15T02:14:53.418Z,54.95
2023-12-15T02:15:53.420Z,52.89
2023-12-15T02:16:53.451Z,52.63
2023-12-15T02:17:53.511Z,53.79
2023-12-15T02:18:53.546Z,53.66
2023-12-15T02:19:53.564Z,54.52
2023-12-15T02:20:53.465Z,55.15
2023-12-15T02:21:53.455Z,53.92
2023-12-15T02:22:53.465Z,54.61
2023-12-15T02:23:53.420Z,57.14
2023-12-15T02:24:53.399Z,53.96
2023-12-15T02:25:53.460Z,54.79
2023-12-15T02:26:53.421Z,53.17
2023-12-15T02:27:53.450Z,53.79
2023-12-15T02:28:53.438Z,53.72
2023-12-15T02:29:53.419Z,53.90
2023-12-15T02:30:53.455Z,53.63
2023-12-15T02:31:53.525Z,55.63
2023-12-15T02:32:53.562Z,53.91
2023-12-15T02:33:53.525Z,51.46
2023-12-15T02:34:53.435Z,51.78
2023-12-15T02:35:53.453Z,56.50
2023-12-15T02:36:53.482Z,54.38
2023-12-15T02:37:53.500Z,55.03
2023-12-15T02:38:53.427Z,52.15
2023-12-15T02:39:53.428Z,53.22
2023-12-15T02:40:53.519Z,52.93
2023-12-15T02:41:53.457Z,51.80
2023-12-15T02:42:53.428Z,54.80
2023-12-15T02:43:53.583Z,53.59
2023-12-15T02:44:53.436Z,52.33
2023-12-15T02:45:53.463Z,51.28
2023-12-15T02:46:53.541Z,52.61
2023-12-15T02:47:53.592Z,54.78
2023-12-15T02:48:53.520Z,53.25
2023-12-15T02:49:53.535Z,53.10
2023-12-15T02:50:53.494Z,50.00
2023-12-15T02:51:53.556Z,53.36
2023-12-15T02:52:53.641Z,54.41
2023-12-15T02:53:53.623Z,54.64
2023-12-15T02:54:53.655Z,53.58
2023-12-15T02:55:53.736Z,53.27
2023-12-15T02:56:53.749Z,54.64
2023-12-15T02:57:53.831Z,54.28
2023-12-15T02:58:53.905Z,53.80
2023-12-15T02:59:53.894Z,54.00
2023-12-15T03:00:54.003Z,55.04
2023-12-15T03:01:54.106Z,54.72
2023-12-15T03:02:54.043Z,55.14
2023-12-15T03:03:54.053Z,54.81
2023-12-15T03:04:54.096Z,55.98
2023-12-15T03:05:54.146Z,54.21
2023-12-15T03:06:54.153Z,55.83
2023-12-15T03:07:54.232Z,56.62
2023-12-15T03:08:54.208Z,56.51
2023-12-15T03:09:54.247Z,55.44
2023-12-15T03:10:54.293Z,55.30
2023-12-15T03:11:54.305Z,52.51
2023-12-15T03:12:54.356Z,56.20
2023-12-15T03:13:54.485Z,56.81
2023-12-15T03:14:54.433Z,54.25
2023-12-15T03:15:54.495Z,56.40
2023-12-15T03:16:54.543Z,55.09
2023-12-15T03:17:54.649Z,54.63
2023-12-15T03:18:54.622Z,54.08
2023-12-15T03:19:54.673Z,55.94
2023-12-15T03:20:54.679Z,55.62
2023-12-15T03:21:54.716Z,54.64
2023-12-15T03:22:54.754Z,55.21
2023-12-15T03:23:54.818Z,54.00
2023-12-15T03:24:54.816Z,55.35
2023-12-15T03:25:54.884Z,56.14
2023-12-15T03:26:54.884Z,55.85
2023-12-15T03:27:54.947Z,57.19
2023-12-15T03:28:55.023Z,55.52
2023-12-15T03:29:55.072Z,54.96
2023-12-15T03:30:55.183Z,59.32
2023-12-15T03:31:55.790Z,56.79
2023-12-15T03:32:55.353Z,56.28
2023-12-15T03:33:55.377Z,54.56
2023-12-15T03:34:55.393Z,54.13
2023-12-15T03:35:55.422Z,55.59
2023-12-15T03:36:55.512Z,56.05
2023-12-15T03:37:55.578Z,58.74
2023-12-15T03:38:55.622Z,55.83
2023-12-15T03:39:55.670Z,56.70
2023-12-15T03:40:55.788Z,58.57
2023-12-15T03:41:55.856Z,56.36
2023-12-15T03:42:55.899Z,58.14
2023-12-15T03:43:56.188Z,54.66
2023-12-15T03:44:56.089Z,54.48
2023-12-15T03:45:56.120Z,56.83
2023-12-15T03:46:56.246Z,57.67
2023-12-15T03:47:56.354Z,54.53
2023-12-15T03:48:56.415Z,55.79
2023-12-15T03:49:56.488Z,57.24
2023-12-15T03:50:56.463Z,56.92
2023-12-15T03:51:56.533Z,57.17
2023-12-15T03:52:56.646Z,54.01
2023-12-15T03:53:56.696Z,58.35
2023-12-15T03:54:57.578Z,55.88
2023-12-15T03:55:56.851Z,57.18
2023-12-15T03:56:57.692Z,56.98
2023-12-15T03:57:56.993Z,55.75
2023-12-15T03:58:57.072Z,57.97
2023-12-15T03:59:57.102Z,57.34
2023-12-15T04:00:57.230Z,56.29
2023-12-15T04:01:57.232Z,58.05
2023-12-15T04:02:57.400Z,54.76
2023-12-15T04:03:57.360Z,56.46
2023-12-15T04:04:57.501Z,56.24
2023-12-15T04:05:57.640Z,58.13
2023-12-15T04:06:57.579Z,56.92
2023-12-15T04:07:57.716Z,58.73
2023-12-15T04:08:57.727Z,56.74
2023-12-15T04:09:57.794Z,58.24
2023-12-15T04:10:57.922Z,58.54
2023-12-15T04:11:58.010Z,56.48
2023-12-15T04:12:58.003Z,56.44
2023-12-15T04:13:58.096Z,56.97
2023-12-15T04:14:58.139Z,56.93
2023-12-15T04:16:00.509Z,58.04
2023-12-15T04:16:58.385Z,57.30
2023-12-15T04:17:58.439Z,57.33
2023-12-15T04:18:58.539Z,56.97
2023-12-15T04:19:58.667Z,56.58
2023-12-15T04:20:58.507Z,58.13
2023-12-15T04:21:58.589Z,56.49
2023-12-15T04:22:58.653Z,58.29
2023-12-15T04:24:05.799Z,50.00
2023-12-15T04:25:05.857Z,50.00
2023-12-15T04:26:05.858Z,50.00
2023-12-15T04:27:05.857Z,50.00
2023-12-15T04:28:05.789Z,50.00
2023-12-15T04:29:05.841Z,51.56
2023-12-15T04:30:05.915Z,52.37
2023-12-15T04:31:13.082Z,50.00
2023-12-15T04:32:13.130Z,50.00
2023-12-15T04:33:13.125Z,50.00
2023-12-15T04:34:13.074Z,50.00
2023-12-15T04:35:13.124Z,50.00
2023-12-15T04:36:13.230Z,51.30
2023-12-15T04:37:13.065Z,52.79
2023-12-15T04:38:13.165Z,52.21
2023-12-15T04:39:13.094Z,50.66
2023-12-15T04:40:13.076Z,51.04
2023-12-15T04:41:13.114Z,51.20
2023-12-15T04:42:13.110Z,53.41
2023-12-15T04:43:13.120Z,52.28
2023-12-15T04:44:13.175Z,52.87
2023-12-15T04:45:13.104Z,51.74
2023-12-15T04:46:13.080Z,53.16
2023-12-15T04:47:13.117Z,50.00
2023-12-15T04:48:13.166Z,50.28
2023-12-15T04:49:13.107Z,54.57
2023-12-15T04:50:13.129Z,54.53
2023-12-15T04:51:13.111Z,50.36
2023-12-15T04:52:13.143Z,51.28
2023-12-15T04:53:13.258Z,52.52
2023-12-15T04:54:13.280Z,52.12
2023-12-15T04:55:13.343Z,50.85
2023-12-15T04:56:13.449Z,52.56
2023-12-15T04:57:13.588Z,52.62
2023-12-15T04:58:13.519Z,52.21
2023-12-15T04:59:13.855Z,54.11
2023-12-15T05:00:13.696Z,52.14
2023-12-15T05:01:13.758Z,54.39
2023-12-15T05:02:13.787Z,54.65
2023-12-15T05:03:13.897Z,51.93
2023-12-15T05:04:13.834Z,52.99
2023-12-15T05:05:13.910Z,51.99
2023-12-15T05:06:13.887Z,50.74
2023-12-15T05:07:13.890Z,53.80
2023-12-15T05:08:13.945Z,53.46
2023-12-15T05:09:13.993Z,51.09
2023-12-15T05:10:14.199Z,53.47
2023-12-15T05:11:14.173Z,52.42
2023-12-15T05:12:14.181Z,52.49
2023-12-15T05:13:14.262Z,50.15
2023-12-15T05:14:14.364Z,53.07
2023-12-15T05:15:14.412Z,51.95
2023-12-15T05:16:14.428Z,53.47
2023-12-15T05:17:14.541Z,55.37
2023-12-15T05:18:14.754Z,52.87
2023-12-15T05:19:14.750Z,51.05
2023-12-15T05:20:14.644Z,51.13
2023-12-15T05:21:14.619Z,51.95
2023-12-15T05:22:14.621Z,51.91
2023-12-15T05:23:14.706Z,52.32
2023-12-15T05:24:14.678Z,51.54
2023-12-15T05:25:14.735Z,52.02
2023-12-15T05:26:14.747Z,52.56
2023-12-15T05:27:14.754Z,52.03
2023-12-15T05:28:14.777Z,53.71
2023-12-15T05:29:14.841Z,51.74
2023-12-15T05:30:14.837Z,52.86
2023-12-15T05:31:14.787Z,53.72
2023-12-15T05:32:14.905Z,50.79
2023-12-15T05:33:14.924Z,50.86
2023-12-15T05:34:14.898Z,53.54
2023-12-15T05:35:14.898Z,53.15
2023-12-15T05:36:14.892Z,52.97
2023-12-15T05:37:14.877Z,51.33
2023-12-15T05:38:15.039Z,52.94
2023-12-15T05:39:14.937Z,54.85
2023-12-15T05:40:14.917Z,54.53
2023-12-15T05:41:14.966Z,51.12
2023-12-15T05:42:14.965Z,50.67
2023-12-15T05:43:15.033Z,54.07
2023-12-15T05:44:15.077Z,54.16
2023-12-15T05:45:15.039Z,54.19
2023-12-15T05:46:15.086Z,54.67
2023-12-15T05:47:15.157Z,53.04
2023-12-15T05:48:15.299Z,51.83
2023-12-15T05:49:15.257Z,52.08
2023-12-15T05:50:15.195Z,54.56
2023-12-15T05:51:15.174Z,55.44
2023-12-15T05:52:15.207Z,53.48
2023-12-15T05:53:15.235Z,54.15
2023-12-15T05:54:15.157Z,54.26
2023-12-15T05:55:15.212Z,53.33
2023-12-15T05:56:15.309Z,54.83
2023-12-15T05:57:15.302Z,55.45
2023-12-15T05:58:15.375Z,53.30
2023-12-15T05:59:15.460Z,51.84
2023-12-15T06:00:15.525Z,53.26
2023-12-15T06:01:38.049Z,53.08
2023-12-15T06:02:15.559Z,53.32
2023-12-15T06:03:15.634Z,54.20
2023-12-15T06:04:15.596Z,56.10
2023-12-15T06:05:15.645Z,56.80
2023-12-15T06:06:15.666Z,58.85
2023-12-15T06:07:15.580Z,59.56
2023-12-15T06:08:15.614Z,57.18
2023-12-15T06:09:15.545Z,55.45
2023-12-15T06:10:15.545Z,58.51
2023-12-15T06:11:15.591Z,56.23
2023-12-15T06:12:15.568Z,56.33
2023-12-15T06:13:15.563Z,55.33
2023-12-15T06:14:15.620Z,58.14
2023-12-15T06:15:15.628Z,60.36
2023-12-15T06:16:15.591Z,58.20
2023-12-15T06:17:15.671Z,60.42
2023-12-15T06:18:15.805Z,59.13
2023-12-15T06:19:15.850Z,59.31
2023-12-15T06:20:15.873Z,60.09
2023-12-15T06:21:15.892Z,61.80
2023-12-15T06:22:16.006Z,59.65
2023-12-15T06:23:16.103Z,59.65
2023-12-15T06:24:16.101Z,61.97
2023-12-15T06:25:16.159Z,61.15
2023-12-15T06:26:16.334Z,62.31
2023-12-15T06:27:16.317Z,62.55
2023-12-15T06:28:16.430Z,63.14
2023-12-15T06:29:16.427Z,61.81
2023-12-15T06:30:16.508Z,60.04
2023-12-15T06:31:16.478Z,63.45
2023-12-15T06:32:16.536Z,65.35
2023-12-15T06:33:16.830Z,63.95
2023-12-15T06:34:16.566Z,61.43
2023-12-15T06:35:16.593Z,63.40
2023-12-15T06:36:16.569Z,62.39
2023-12-15T06:37:16.768Z,63.79
2023-12-15T06:38:16.646Z,62.98
2023-12-15T06:39:17.910Z,66.45
2023-12-15T06:40:16.679Z,66.43
2023-12-15T06:41:16.739Z,69.12
2023-12-15T06:42:16.686Z,69.91
2023-12-15T06:43:16.750Z,69.56
2023-12-15T06:44:16.897Z,69.98
2023-12-15T06:45:16.894Z,71.58
2023-12-15T06:46:39.515Z,70.50
2023-12-15T06:47:18.861Z,70.72
2023-12-15T06:48:17.081Z,71.84
2023-12-15T06:49:19.643Z,70.91
2023-12-15T06:50:17.015Z,72.04
2023-12-15T06:51:17.006Z,74.04
2023-12-15T06:52:16.995Z,75.36
2023-12-15T06:53:16.981Z,80.09
2023-12-15T06:54:16.964Z,78.43
2023-12-15T06:55:16.992Z,74.69
2023-12-15T06:56:16.997Z,78.05
2023-12-15T06:57:16.985Z,78.05
2023-12-15T06:58:16.984Z,76.94
2023-12-15T06:59:17.329Z,74.93
2023-12-15T07:00:17.000Z,76.73
2023-12-15T07:01:17.011Z,73.85
2023-12-15T07:02:17.012Z,74.72
2023-12-15T07:03:17.034Z,74.43
2023-12-15T07:04:17.138Z,73.96
2023-12-15T07:05:17.140Z,72.58
2023-12-15T07:06:17.050Z,72.49
2023-12-15T07:07:17.006Z,74.57
2023-12-15T07:08:17.039Z,74.61
2023-12-15T07:09:19.517Z,72.79
2023-12-15T07:10:17.781Z,72.82
2023-12-15T07:11:17.882Z,72.91
2023-12-15T07:12:16.992Z,73.77
2023-12-15T07:13:16.991Z,74.01
2023-12-15T07:14:17.027Z,72.81
2023-12-15T07:15:17.012Z,73.11
2023-12-15T07:16:17.019Z,75.25
2023-12-15T07:17:17.041Z,74.25
2023-12-15T07:18:17.176Z,71.74
2023-12-15T07:19:18.293Z,75.38
2023-12-15T07:20:17.057Z,72.21
2023-12-15T07:21:17.010Z,72.04
2023-12-15T07:22:19.589Z,72.83
2023-12-15T07:23:17.026Z,72.86
2023-12-15T07:24:17.018Z,73.06
2023-12-15T07:25:17.026Z,72.96
2023-12-15T07:26:17.063Z,73.40
2023-12-15T07:27:17.032Z,71.24
2023-12-15T07:28:17.081Z,71.48
2023-12-15T07:29:17.860Z,74.26
2023-12-15T07:30:17.066Z,72.48
2023-12-15T07:31:17.826Z,72.55
2023-12-15T07:32:17.112Z,70.64
2023-12-15T07:33:17.083Z,73.27
2023-12-15T07:34:17.466Z,72.32
2023-12-15T07:35:25.433Z,72.13
2023-12-15T07:36:18.128Z,72.16
2023-12-15T07:37:17.052Z,71.93
2023-12-15T07:38:17.088Z,71.75
2023-12-15T07:39:17.329Z,71.13
2023-12-15T07:40:17.073Z,69.32
2023-12-15T07:41:17.175Z,70.38
2023-12-15T07:42:17.087Z,69.77
2023-12-15T07:43:17.053Z,70.19
2023-12-15T07:44:17.186Z,71.96
2023-12-15T07:45:17.186Z,69.69
2023-12-15T07:46:17.325Z,71.98
2023-12-15T07:47:17.320Z,73.24
2023-12-15T07:48:17.482Z,72.67
2023-12-15T07:49:17.474Z,72.25
2023-12-15T07:50:17.554Z,72.22
2023-12-15T07:51:17.576Z,73.12
2023-12-15T07:52:17.622Z,70.84
2023-12-15T07:53:17.725Z,72.26
2023-12-15T07:54:17.753Z,71.42
2023-12-15T07:55:17.841Z,72.72
2023-12-15T07:56:17.955Z,72.46
2023-12-15T07:57:18.830Z,72.16
2023-12-15T07:58:18.012Z,73.70
2023-12-15T07:59:19.304Z,69.14
2023-12-15T08:00:18.189Z,72.83
2023-12-15T08:01:18.307Z,73.27
2023-12-15T08:02:18.373Z,73.58
2023-12-15T08:03:18.424Z,74.38
2023-12-15T08:04:18.423Z,74.43
2023-12-15T08:05:18.580Z,74.86
2023-12-15T08:06:18.665Z,73.99
2023-12-15T08:07:18.664Z,72.78
2023-12-15T08:08:18.723Z,74.37
2023-12-15T08:09:18.770Z,72.87
2023-12-15T08:10:18.809Z,73.46
2023-12-15T08:11:19.807Z,74.57
2023-12-15T08:12:18.994Z,72.66
2023-12-15T08:13:19.057Z,72.10
2023-12-15T08:14:19.865Z,72.68
2023-12-15T08:15:19.209Z,70.76
2023-12-15T08:16:19.273Z,74.51
2023-12-15T08:17:19.390Z,73.21
2023-12-15T08:18:19.420Z,75.04
2023-12-15T08:19:19.477Z,71.76
2023-12-15T08:20:19.566Z,71.54
2023-12-15T08:21:19.562Z,75.08
2023-12-15T08:22:19.672Z,75.42
2023-12-15T08:23:19.666Z,73.12
2023-12-15T08:24:19.838Z,74.82
2023-12-15T08:25:19.689Z,75.40
2023-12-15T08:26:19.875Z,76.16
2023-12-15T08:27:19.810Z,73.84
2023-12-15T08:28:19.894Z,74.49
2023-12-15T08:29:20.056Z,73.74
2023-12-15T08:30:20.005Z,74.62
2023-12-15T08:31:20.095Z,75.13
2023-12-15T08:32:20.214Z,75.18
2023-12-15T08:33:20.253Z,76.52
2023-12-15T08:34:20.451Z,74.88
2023-12-15T08:35:20.292Z,76.14
2023-12-15T08:36:20.289Z,74.51
2023-12-15T08:37:20.339Z,75.27
2023-12-15T08:38:20.406Z,77.14
2023-12-15T08:39:20.498Z,73.99
2023-12-15T08:40:20.575Z,77.26
2023-12-15T08:41:20.607Z,77.34
2023-12-15T08:42:20.681Z,77.43
2023-12-15T08:43:20.737Z,76.00
2023-12-15T08:44:29.075Z,77.10
2023-12-15T08:45:21.901Z,77.29
2023-12-15T08:46:20.817Z,77.88
2023-12-15T08:47:20.845Z,77.96
2023-12-15T08:48:20.890Z,79.12
2023-12-15T08:49:20.936Z,79.57
2023-12-15T08:50:20.897Z,80.08
2023-12-15T08:51:20.845Z,79.88
2023-12-15T08:52:20.901Z,80.56
2023-12-15T08:53:21.058Z,77.86
2023-12-15T08:54:21.024Z,77.81
2023-12-15T08:55:21.100Z,79.15
2023-12-15T08:56:21.340Z,77.22
2023-12-15T08:57:21.321Z,79.60
2023-12-15T08:58:21.265Z,78.96
2023-12-15T08:59:21.360Z,77.68
2023-12-15T09:00:21.401Z,79.65
2023-12-15T09:01:21.563Z,75.96
2023-12-15T09:02:21.553Z,77.21
2023-12-15T09:03:21.606Z,78.44
2023-12-15T09:04:21.706Z,76.96
2023-12-15T09:05:31.310Z,76.40
2023-12-15T09:06:27.424Z,76.40
2023-12-15T09:07:22.811Z,76.48
2023-12-15T09:08:21.958Z,76.68
2023-12-15T09:09:21.801Z,76.70
2023-12-15T09:10:21.732Z,77.93
2023-12-15T09:11:21.788Z,75.97
2023-12-15T09:12:21.774Z,77.03
2023-12-15T09:13:21.771Z,77.71
2023-12-15T09:14:21.795Z,75.59
2023-12-15T09:15:21.773Z,74.79
2023-12-15T09:16:21.815Z,73.76
2023-12-15T09:17:21.748Z,74.27
2023-12-15T09:18:21.858Z,74.44
2023-12-15T09:19:21.795Z,73.95
2023-12-15T09:20:21.800Z,72.64
2023-12-15T09:21:21.774Z,74.76
2023-12-15T09:22:21.784Z,71.72
2023-12-15T09:23:21.812Z,70.83
2023-12-15T09:24:21.815Z,74.13
2023-12-15T09:25:21.799Z,70.41
2023-12-15T09:26:21.814Z,69.95
2023-12-15T09:27:21.813Z,72.84
2023-12-15T09:28:21.827Z,72.24
2023-12-15T09:29:21.929Z,70.89
2023-12-15T09:30:21.885Z,72.21
2023-12-15T09:31:21.953Z,70.14
2023-12-15T09:32:21.933Z,68.62
2023-12-15T09:33:22.017Z,71.09
2023-12-15T09:34:21.959Z,71.77
2023-12-15T09:35:21.974Z,68.38
2023-12-15T09:36:22.014Z,70.19
2023-12-15T09:37:22.080Z,71.30
2023-12-15T09:38:22.196Z,71.55
2023-12-15T09:39:22.408Z,74.35
2023-12-15T09:40:22.275Z,72.79
2023-12-15T09:41:22.330Z,72.90
2023-12-15T09:42:22.372Z,74.57
2023-12-15T09:43:22.489Z,75.60
2023-12-15T09:44:22.583Z,74.99
2023-12-15T09:45:22.912Z,76.43
2023-12-15T09:46:22.668Z,76.58
2023-12-15T09:47:22.780Z,75.16
2023-12-15T09:48:22.855Z,78.44
2023-12-15T09:49:22.939Z,75.46
2023-12-15T09:50:25.954Z,77.42
2023-12-15T09:51:22.892Z,78.56
2023-12-15T09:52:22.926Z,77.53
2023-12-15T09:53:22.975Z,78.91
2023-12-15T09:54:22.926Z,78.76
2023-12-15T09:55:22.935Z,78.40
2023-12-15T09:56:22.951Z,78.08
2023-12-15T09:57:22.881Z,78.74
2023-12-15T09:58:22.881Z,77.92
2023-12-15T09:59:22.961Z,76.88
2023-12-15T10:00:22.904Z,77.41
2023-12-15T10:01:22.979Z,78.06
2023-12-15T10:02:22.920Z,75.96
2023-12-15T10:03:22.963Z,76.02
2023-12-15T10:04:22.944Z,74.95
2023-12-15T10:05:23.025Z,74.55
2023-12-15T10:06:23.067Z,75.50
2023-12-15T10:07:22.884Z,74.24
2023-12-15T10:08:22.947Z,71.76
2023-12-15T10:09:24.430Z,72.70
2023-12-15T10:10:22.939Z,74.51
2023-12-15T10:11:22.923Z,73.32
2023-12-15T10:12:22.958Z,74.50
2023-12-15T10:13:22.974Z,74.78
2023-12-15T10:14:22.924Z,73.33
2023-12-15T10:15:24.260Z,73.49
2023-12-15T10:16:23.022Z,73.52
2023-12-15T10:17:23.197Z,73.83
2023-12-15T10:18:31.894Z,71.93
2023-12-15T10:19:24.248Z,73.54
2023-12-15T10:20:23.131Z,73.70
2023-12-15T10:21:23.735Z,73.80
2023-12-15T10:22:23.223Z,73.95
2023-12-15T10:23:23.155Z,75.34
2023-12-15T10:24:23.102Z,74.26
2023-12-15T10:25:23.155Z,72.43
2023-12-15T10:26:23.164Z,72.92
2023-12-15T10:27:23.189Z,72.48
2023-12-15T10:28:23.262Z,72.59
2023-12-15T10:29:23.349Z,73.67
2023-12-15T10:30:23.952Z,72.60
2023-12-15T10:31:23.477Z,71.11
2023-12-15T10:32:23.554Z,71.98
2023-12-15T10:33:23.676Z,71.74
2023-12-15T10:34:23.748Z,70.85
2023-12-15T10:35:24.499Z,73.39
2023-12-15T10:36:23.759Z,72.48
2023-12-15T10:37:26.389Z,71.61
2023-12-15T10:38:24.073Z,71.04
2023-12-15T10:39:24.158Z,71.96
2023-12-15T10:40:24.412Z,72.23
2023-12-15T10:41:24.289Z,72.63
2023-12-15T10:42:24.316Z,72.65
2023-12-15T10:43:24.389Z,70.45
2023-12-15T10:44:24.461Z,71.45
2023-12-15T10:45:24.891Z,73.20
2023-12-15T10:46:24.646Z,69.91
2023-12-15T10:47:24.635Z,73.46
2023-12-15T10:48:24.918Z,72.68
2023-12-15T10:49:24.803Z,71.00
2023-12-15T10:50:24.836Z,72.32
2023-12-15T10:51:24.928Z,73.28
2023-12-15T10:52:24.941Z,72.64
2023-12-15T10:53:25.103Z,73.85
2023-12-15T10:54:25.082Z,73.94
2023-12-15T10:55:25.182Z,74.10
2023-12-15T10:56:26.234Z,74.10
2023-12-15T10:57:25.171Z,74.17
2023-12-15T10:58:25.140Z,73.94
2023-12-15T10:59:25.162Z,71.57
2023-12-15T11:00:25.150Z,71.11
2023-12-15T11:01:25.171Z,73.15
2023-12-15T11:02:25.161Z,71.50
2023-12-15T11:03:25.975Z,72.34
2023-12-15T11:04:25.251Z,72.46
2023-12-15T11:05:32.847Z,72.21
2023-12-15T11:06:26.307Z,72.36
2023-12-15T11:07:25.352Z,72.29
2023-12-15T11:08:25.366Z,73.00
2023-12-15T11:09:25.446Z,73.10
2023-12-15T11:10:25.243Z,71.83
2023-12-15T11:11:25.324Z,73.65
2023-12-15T11:12:25.311Z,72.36
2023-12-15T11:13:25.250Z,72.45
2023-12-15T11:14:25.287Z,75.57
2023-12-15T11:15:25.296Z,72.14
2023-12-15T11:16:25.405Z,72.42
2023-12-15T11:17:25.495Z,72.17
2023-12-15T11:18:25.643Z,71.32
2023-12-15T11:19:25.603Z,72.14
2023-12-15T11:20:25.714Z,70.37
2023-12-15T11:21:25.705Z,72.98
2023-12-15T11:22:25.771Z,72.33
2023-12-15T11:23:25.842Z,71.32
2023-12-15T11:24:25.889Z,73.89
2023-12-15T11:25:25.913Z,71.57
2023-12-15T11:26:25.947Z,70.53
2023-12-15T11:27:25.891Z,71.33
2023-12-15T11:28:25.911Z,73.95
2023-12-15T11:29:25.959Z,72.80
2023-12-15T11:30:25.973Z,71.46
2023-12-15T11:31:25.957Z,70.07
2023-12-15T11:32:25.991Z,71.09
2023-12-15T11:33:26.133Z,69.77
2023-12-15T11:34:26.045Z,71.82
2023-12-15T11:35:26.436Z,70.81
2023-12-15T11:36:26.041Z,69.63
2023-12-15T11:37:26.028Z,71.81
2023-12-15T11:38:26.071Z,71.41
2023-12-15T11:39:26.115Z,71.92
2023-12-15T11:40:26.075Z,71.38
2023-12-15T11:41:26.106Z,71.27
2023-12-15T11:42:26.166Z,71.41
2023-12-15T11:43:26.190Z,71.91
2023-12-15T11:44:26.159Z,69.02
2023-12-15T11:45:26.188Z,72.43
2023-12-15T11:46:26.221Z,69.72
2023-12-15T11:47:26.227Z,71.19
2023-12-15T11:48:26.299Z,71.44
2023-12-15T11:49:26.250Z,71.06
2023-12-15T11:50:26.275Z,72.39
2023-12-15T11:51:26.373Z,71.41
2023-12-15T11:52:26.299Z,73.27
2023-12-15T11:53:26.373Z,72.43
2023-12-15T11:54:26.364Z,72.64
2023-12-15T11:55:26.372Z,72.71
2023-12-15T11:56:26.370Z,72.98
2023-12-15T11:57:26.406Z,72.91
2023-12-15T11:58:26.418Z,74.13
2023-12-15T11:59:26.491Z,73.40
2023-12-15T12:00:26.502Z,72.85
2023-12-15T12:01:26.517Z,73.55
2023-12-15T12:02:26.625Z,75.18
2023-12-15T12:03:26.551Z,74.00
2023-12-15T12:04:26.567Z,73.04
2023-12-15T12:05:26.552Z,71.26
2023-12-15T12:06:26.658Z,72.10
2023-12-15T12:07:26.591Z,73.31
2023-12-15T12:08:26.644Z,72.94
2023-12-15T12:09:26.670Z,72.71
2023-12-15T12:10:26.696Z,73.89
2023-12-15T12:11:26.906Z,74.80
2023-12-15T12:12:26.811Z,72.79
2023-12-15T12:13:26.891Z,74.07
2023-12-15T12:14:26.964Z,74.33
2023-12-15T12:15:27.962Z,73.97
2023-12-15T12:16:27.120Z,73.58
2023-12-15T12:17:27.309Z,73.13
2023-12-15T12:18:27.325Z,72.28
2023-12-15T12:19:27.307Z,76.29
2023-12-15T12:20:27.375Z,72.45
2023-12-15T12:21:27.396Z,73.97
2023-12-15T12:22:27.466Z,75.07
2023-12-15T12:23:34.764Z,72.27
2023-12-15T12:24:28.534Z,72.44
2023-12-15T12:25:27.579Z,72.80
2023-12-15T12:26:27.624Z,73.21
2023-12-15T12:27:27.546Z,73.13
2023-12-15T12:28:27.533Z,74.97
2023-12-15T12:29:27.575Z,74.10
2023-12-15T12:30:27.579Z,73.42
2023-12-15T12:31:28.150Z,72.45
2023-12-15T12:32:27.641Z,71.75
2023-12-15T12:33:27.742Z,71.10
2023-12-15T12:34:27.794Z,66.31
2023-12-15T12:35:27.805Z,63.27
2023-12-15T12:36:27.935Z,64.17
2023-12-15T12:37:27.939Z,64.80
2023-12-15T12:38:28.045Z,61.12
2023-12-15T12:39:28.006Z,58.50
2023-12-15T12:40:27.962Z,61.28
2023-12-15T12:41:28.557Z,58.45
2023-12-15T12:42:27.978Z,58.59
2023-12-15T12:43:28.011Z,57.87
2023-12-15T12:44:28.082Z,58.55
2023-12-15T12:45:28.024Z,57.14
2023-12-15T12:46:28.039Z,52.00
2023-12-15T12:47:29.333Z,52.36
2023-12-15T12:48:28.254Z,50.02
2023-12-15T12:49:36.033Z,50.01
2023-12-15T12:50:29.189Z,50.16
2023-12-15T12:51:28.072Z,50.43
2023-12-15T12:52:28.086Z,49.92
2023-12-15T12:53:28.123Z,50.20